Terminal Aerodrome Forecast
Issued by NWS

Home | Current Version | Previous Version | Text Only | Print | Product List | Glossary On
Versions: 1 2 3 4 5 6 7 8 9 10 11 12 13 14 15 16 17 18 19 20 21 22 23 24 25 26 27 28 29 30 31
000
FTUS45 KVEF 251446 AAA
TAFLAS
TAF AMD
KLAS 251446Z 2515/2612 35007KT P6SM SKC
     FM251630 04012G20KT P6SM SKC
     FM260100 06009KT P6SM SKC
     FM260800 18007KT P6SM SKC=

USA.gov is the U.S. government's official web portal to all federal, state and local government web resources and services.